Ocean King — CZ2591 — position and weather

sailwx.info

Track history (hours):
 
Tides and Currents Weather Stations Pressure Air Temp Water Temp Dewpoint Dewpoint Depression Visibility Wind Speed Wind Dir Waves Ship Positions

Ocean King

Last reported at 2015-Jan-14 09:07 UTC. Time now 2015-Mar-05 22:37 UTC.
Position N 49°52' W 125°02'.
Warning: this ship's position is 50 days out of date.

Length 29 m; draft 4 m.

Type: Fishing. MMSI: 316003514.

Date/timePositionNaut miles runAvg speedWind from/ knotsBaromVisibWave heightAir tempDewpointWater temp
2015-Jan-14 09:07N 49°52' W 125°02'5 8.6
2015-Jan-14 08:33N 49°48' W 124°57'8 8.4
2015-Jan-14 07:33N 49°42' W 124°48'8 8.3
2015-Jan-14 06:33N 49°36' W 124°39'9 8.1
2015-Jan-14 05:27N 49°30' W 124°29'8 8.5
2015-Jan-14 04:33N 49°25' W 124°20'9 8.4
2015-Jan-14 03:33N 49°20' W 124°10'8 8.3
2015-Jan-14 02:33N 49°16' W 123°59'10 8.4
2015-Jan-14 01:24N 49°08' W 123°49'8 8.9
2015-Jan-14 00:33N 49°03' W 123°41'9 8.7
2015-Jan-13 23:33N 48°57' W 123°32'8 7.8
2015-Jan-13 22:29N 48°50' W 123°25'7 7.4
2015-Jan-13 21:33N 48°43' W 123°21'7 7.2
2015-Jan-13 20:33N 48°36' W 123°20'8 8.1
2015-Jan-13 19:33N 48°29' W 123°16'7 6.7
2015-Jan-13 18:33N 48°23' W 123°20'9 8.6
2015-Jan-13 17:33N 48°19' W 123°32'9 9.4
2015-Jan-13 16:33N 48°20' W 123°46'10 9.6
2015-Jan-13 15:33N 48°23' W 123°60'10 9.7
2015-Jan-13 14:33N 48°26' W 124°13'10 9.8
2015-Jan-13 13:33N 48°30' W 124°27'9 9.3
2015-Jan-13 12:33N 48°33' W 124°40'9 8.9
2015-Jan-13 11:33N 48°36' W 124°53'9 8.7
2015-Jan-13 10:33N 48°40' W 125°04'9 8.7
2015-Jan-13 09:33N 48°46' W 125°14'8 8.0
2015-Jan-13 08:33N 48°52' W 125°06'12 9.1
2015-Jan-13 07:16N 49°00' W 124°53'7 9.4
2015-Jan-13 06:33N 49°06' W 124°49'8 8.0
2015-Jan-13 05:33N 49°14' W 124°49'0 0.0
2015-Jan-13 04:33N 49°14' W 124°49'0 0.0
2015-Jan-13 03:33N 49°14' W 124°49'0 0.0
2015-Jan-13 02:33N 49°14' W 124°49'0 0.0
2015-Jan-13 01:33N 49°14' W 124°49'0 0.0
2015-Jan-13 00:33N 49°14' W 124°49'0 0.0
2015-Jan-12 23:33N 49°14' W 124°49'0 0.0
2015-Jan-12 22:33N 49°14' W 124°49'0 0.0
2015-Jan-12 21:33N 49°14' W 124°49'0 0.0
2015-Jan-12 20:33N 49°14' W 124°49'0 0.0
2015-Jan-12 19:33N 49°14' W 124°49'0 0.0
2015-Jan-12 18:33N 49°14' W 124°49'0 0.0
2015-Jan-12 17:33N 49°14' W 124°49'  
Track history (hours):
 
Tides and Currents Weather Stations Pressure Air Temp Water Temp Dewpoint Dewpoint Depression Visibility Wind Speed Wind Dir Waves Ship Positions

Ocean King

Last reported at 2015-Jan-14 09:07 UTC. Time now 2015-Mar-05 22:37 UTC.
Position N 49°52' W 125°02'.
Warning: this ship's position is 50 days out of date.

Length 29 m; draft 4 m.

Type: Fishing. MMSI: 316003514.

Date/timePositionNaut miles runAvg speedWind from/ knotsBaromVisibWave heightAir tempDewpointWater temp
2015-Jan-14 09:07N 49°52' W 125°02'5 8.6
2015-Jan-14 08:33N 49°48' W 124°57'8 8.4
2015-Jan-14 07:33N 49°42' W 124°48'8 8.3
2015-Jan-14 06:33N 49°36' W 124°39'9 8.1
2015-Jan-14 05:27N 49°30' W 124°29'8 8.5
2015-Jan-14 04:33N 49°25' W 124°20'9 8.4
2015-Jan-14 03:33N 49°20' W 124°10'8 8.3
2015-Jan-14 02:33N 49°16' W 123°59'10 8.4
2015-Jan-14 01:24N 49°08' W 123°49'8 8.9
2015-Jan-14 00:33N 49°03' W 123°41'9 8.7
2015-Jan-13 23:33N 48°57' W 123°32'8 7.8
2015-Jan-13 22:29N 48°50' W 123°25'7 7.4
2015-Jan-13 21:33N 48°43' W 123°21'7 7.2
2015-Jan-13 20:33N 48°36' W 123°20'8 8.1
2015-Jan-13 19:33N 48°29' W 123°16'7 6.7
2015-Jan-13 18:33N 48°23' W 123°20'9 8.6
2015-Jan-13 17:33N 48°19' W 123°32'9 9.4
2015-Jan-13 16:33N 48°20' W 123°46'10 9.6
2015-Jan-13 15:33N 48°23' W 123°60'10 9.7
2015-Jan-13 14:33N 48°26' W 124°13'10 9.8
2015-Jan-13 13:33N 48°30' W 124°27'9 9.3
2015-Jan-13 12:33N 48°33' W 124°40'9 8.9
2015-Jan-13 11:33N 48°36' W 124°53'9 8.7
2015-Jan-13 10:33N 48°40' W 125°04'9 8.7
2015-Jan-13 09:33N 48°46' W 125°14'8 8.0
2015-Jan-13 08:33N 48°52' W 125°06'12 9.1
2015-Jan-13 07:16N 49°00' W 124°53'7 9.4
2015-Jan-13 06:33N 49°06' W 124°49'8 8.0
2015-Jan-13 05:33N 49°14' W 124°49'0 0.0
2015-Jan-13 04:33N 49°14' W 124°49'0 0.0
2015-Jan-13 03:33N 49°14' W 124°49'0 0.0
2015-Jan-13 02:33N 49°14' W 124°49'0 0.0
2015-Jan-13 01:33N 49°14' W 124°49'0 0.0
2015-Jan-13 00:33N 49°14' W 124°49'0 0.0
2015-Jan-12 23:33N 49°14' W 124°49'0 0.0
2015-Jan-12 22:33N 49°14' W 124°49'0 0.0
2015-Jan-12 21:33N 49°14' W 124°49'0 0.0
2015-Jan-12 20:33N 49°14' W 124°49'0 0.0
2015-Jan-12 19:33N 49°14' W 124°49'0 0.0
2015-Jan-12 18:33N 49°14' W 124°49'0 0.0
2015-Jan-12 17:33N 49°14' W 124°49'  

Dump ship's entire track history